Terminal Aerodrome Forecast
Issued by NWS

Home | Current Version | Previous Version | Text Only | Print | Product List | Glossary On
Versions: 1 2 3 4 5 6 7 8 9 10 11 12 13 14 15 16 17 18 19 20 21 22 23 24 25 26 27 28
951
FTUS46 KMTR 251133
TAFSFO
TAF
KSFO 251133Z 2512/2618 02004KT P6SM FEW020
     FM251900 27010KT P6SM FEW020 FEW150
     FM252200 28018KT P6SM SCT020 SCT150
     FM260300 27017KT P6SM BKN020
     FM261000 23009KT 5SM -RA OVC015
     FM261500 30016KT 5SM -RA OVC018=

USA.gov is the U.S. government's official web portal to all federal, state and local government web resources and services.